sensor_id;sensor_type;location;lat;lon;timestamp;P1;durP1;ratioP1;P2;durP2;ratioP2
9860;SDS011;4969;52.304;4.968;2022-12-01T00:00:41;54.30;;;35.67;;
9860;SDS011;4969;52.304;4.968;2022-12-01T00:03:08;61.87;;;45.13;;
9860;SDS011;4969;52.304;4.968;2022-12-01T00:05:36;53.93;;;38.37;;
9860;SDS011;4969;52.304;4.968;2022-12-01T00:08:03;52.03;;;36.17;;
9860;SDS011;4969;52.304;4.968;2022-12-01T00:10:30;54.80;;;36.03;;
9860;SDS011;4969;52.304;4.968;2022-12-01T00:12:57;56.47;;;35.60;;
9860;SDS011;4969;52.304;4.968;2022-12-01T00:15:26;61.80;;;39.23;;
9860;SDS011;4969;52.304;4.968;2022-12-01T00:17:54;60.77;;;40.07;;
9860;SDS011;4969;52.304;4.968;2022-12-01T00:20:23;61.83;;;41.57;;
9860;SDS011;4969;52.304;4.968;2022-12-01T00:22:51;62.17;;;40.43;;
9860;SDS011;4969;52.304;4.968;2022-12-01T00:25:18;65.93;;;42.27;;
9860;SDS011;4969;52.304;4.968;2022-12-01T00:27:46;72.23;;;47.77;;
9860;SDS011;4969;52.304;4.968;2022-12-01T00:30:14;52.83;;;36.57;;
9860;SDS011;4969;52.304;4.968;2022-12-01T00:32:40;57.33;;;38.03;;
9860;SDS011;4969;52.304;4.968;2022-12-01T00:35:07;58.57;;;40.03;;
9860;SDS011;4969;52.304;4.968;2022-12-01T00:37:34;64.67;;;44.90;;
9860;SDS011;4969;52.304;4.968;2022-12-01T00:40:03;52.60;;;35.80;;
9860;SDS011;4969;52.304;4.968;2022-12-01T00:42:35;58.47;;;38.67;;
9860;SDS011;4969;52.304;4.968;2022-12-01T00:45:01;55.27;;;39.07;;
9860;SDS011;4969;52.304;4.968;2022-12-01T00:47:28;57.10;;;38.50;;
9860;SDS011;4969;52.304;4.968;2022-12-01T00:49:55;71.00;;;45.10;;
9860;SDS011;4969;52.304;4.968;2022-12-01T00:52:21;62.17;;;40.70;;
9860;SDS011;4969;52.304;4.968;2022-12-01T00:54:48;67.33;;;46.17;;
9860;SDS011;4969;52.304;4.968;2022-12-01T00:57:16;58.47;;;39.17;;
9860;SDS011;4969;52.304;4.968;2022-12-01T00:59:42;59.60;;;39.93;;
9860;SDS011;4969;52.304;4.968;2022-12-01T01:02:09;59.67;;;40.10;;
9860;SDS011;4969;52.304;4.968;2022-12-01T01:04:36;66.03;;;45.27;;
9860;SDS011;4969;52.304;4.968;2022-12-01T01:07:03;57.23;;;40.47;;
9860;SDS011;4969;52.304;4.968;2022-12-01T01:09:30;63.93;;;44.53;;
9860;SDS011;4969;52.304;4.968;2022-12-01T01:11:57;56.63;;;37.90;;
9860;SDS011;4969;52.304;4.968;2022-12-01T01:14:25;60.37;;;40.77;;
9860;SDS011;4969;52.304;4.968;2022-12-01T01:16:52;66.90;;;43.83;;
9860;SDS011;4969;52.304;4.968;2022-12-01T01:19:20;65.57;;;41.40;;
9860;SDS011;4969;52.304;4.968;2022-12-01T01:21:47;58.77;;;38.73;;
9860;SDS011;4969;52.304;4.968;2022-12-01T01:24:13;60.10;;;40.63;;
9860;SDS011;4969;52.304;4.968;2022-12-01T01:26:40;61.27;;;42.83;;
9860;SDS011;4969;52.304;4.968;2022-12-01T01:29:07;53.87;;;38.73;;
9860;SDS011;4969;52.304;4.968;2022-12-01T01:31:35;58.43;;;42.03;;
9860;SDS011;4969;52.304;4.968;2022-12-01T01:34:01;51.03;;;35.53;;
9860;SDS011;4969;52.304;4.968;2022-12-01T01:36:28;58.57;;;41.93;;
9860;SDS011;4969;52.304;4.968;2022-12-01T01:38:55;52.40;;;36.93;;
9860;SDS011;4969;52.304;4.968;2022-12-01T01:41:22;56.20;;;39.87;;
9860;SDS011;4969;52.304;4.968;2022-12-01T01:43:50;53.57;;;36.73;;
9860;SDS011;4969;52.304;4.968;2022-12-01T01:46:18;54.73;;;36.43;;
9860;SDS011;4969;52.304;4.968;2022-12-01T01:48:49;53.13;;;36.33;;
9860;SDS011;4969;52.304;4.968;2022-12-01T01:51:19;56.30;;;38.43;;
9860;SDS011;4969;52.304;4.968;2022-12-01T01:53:48;55.17;;;38.87;;
9860;SDS011;4969;52.304;4.968;2022-12-01T01:56:17;62.97;;;39.33;;
9860;SDS011;4969;52.304;4.968;2022-12-01T01:58:44;57.30;;;37.87;;
9860;SDS011;4969;52.304;4.968;2022-12-01T02:01:11;57.57;;;38.33;;
9860;SDS011;4969;52.304;4.968;2022-12-01T02:03:37;56.90;;;39.33;;
9860;SDS011;4969;52.304;4.968;2022-12-01T02:06:08;54.80;;;38.43;;
9860;SDS011;4969;52.304;4.968;2022-12-01T02:08:35;55.33;;;37.57;;
9860;SDS011;4969;52.304;4.968;2022-12-01T02:11:11;58.40;;;39.83;;
9860;SDS011;4969;52.304;4.968;2022-12-01T02:13:50;54.60;;;37.97;;
9860;SDS011;4969;52.304;4.968;2022-12-01T02:16:28;58.77;;;39.23;;
9860;SDS011;4969;52.304;4.968;2022-12-01T02:19:06;57.10;;;37.77;;
9860;SDS011;4969;52.304;4.968;2022-12-01T02:21:48;58.00;;;36.93;;
9860;SDS011;4969;52.304;4.968;2022-12-01T02:27:27;54.93;;;37.03;;
9860;SDS011;4969;52.304;4.968;2022-12-01T02:30:04;55.53;;;37.53;;
9860;SDS011;4969;52.304;4.968;2022-12-01T02:32:38;51.13;;;37.33;;
9860;SDS011;4969;52.304;4.968;2022-12-01T02:35:11;51.93;;;36.87;;
9860;SDS011;4969;52.304;4.968;2022-12-01T02:37:42;50.93;;;36.13;;
9860;SDS011;4969;52.304;4.968;2022-12-01T02:40:13;48.60;;;36.00;;
9860;SDS011;4969;52.304;4.968;2022-12-01T02:42:46;50.87;;;35.57;;
9860;SDS011;4969;52.304;4.968;2022-12-01T02:45:29;49.97;;;35.37;;
9860;SDS011;4969;52.304;4.968;2022-12-01T02:48:01;48.50;;;34.57;;
9860;SDS011;4969;52.304;4.968;2022-12-01T02:50:31;47.80;;;34.57;;
9860;SDS011;4969;52.304;4.968;2022-12-01T02:53:00;51.37;;;35.53;;
9860;SDS011;4969;52.304;4.968;2022-12-01T02:55:29;52.37;;;35.03;;
9860;SDS011;4969;52.304;4.968;2022-12-01T02:57:55;50.20;;;34.93;;
9860;SDS011;4969;52.304;4.968;2022-12-01T03:00:22;54.60;;;35.73;;
9860;SDS011;4969;52.304;4.968;2022-12-01T03:02:56;53.27;;;36.83;;
9860;SDS011;4969;52.304;4.968;2022-12-01T03:05:37;51.03;;;33.53;;
9860;SDS011;4969;52.304;4.968;2022-12-01T03:08:11;49.37;;;33.73;;
9860;SDS011;4969;52.304;4.968;2022-12-01T03:10:47;51.40;;;34.63;;
9860;SDS011;4969;52.304;4.968;2022-12-01T03:13:18;45.60;;;32.27;;
9860;SDS011;4969;52.304;4.968;2022-12-01T03:15:54;47.73;;;33.57;;
9860;SDS011;4969;52.304;4.968;2022-12-01T03:18:26;45.13;;;32.10;;
9860;SDS011;4969;52.304;4.968;2022-12-01T03:20:58;44.03;;;31.20;;
9860;SDS011;4969;52.304;4.968;2022-12-01T03:23:30;44.50;;;31.93;;
9860;SDS011;4969;52.304;4.968;2022-12-01T03:26:00;46.73;;;32.63;;
9860;SDS011;4969;52.304;4.968;2022-12-01T03:28:32;45.70;;;32.10;;
9860;SDS011;4969;52.304;4.968;2022-12-01T03:31:02;47.90;;;31.67;;
9860;SDS011;4969;52.304;4.968;2022-12-01T03:33:34;48.67;;;34.83;;
9860;SDS011;4969;52.304;4.968;2022-12-01T03:36:07;43.03;;;30.47;;
9860;SDS011;4969;52.304;4.968;2022-12-01T03:38:36;46.70;;;31.90;;
9860;SDS011;4969;52.304;4.968;2022-12-01T03:41:06;46.47;;;33.07;;
9860;SDS011;4969;52.304;4.968;2022-12-01T03:43:36;42.73;;;30.60;;
9860;SDS011;4969;52.304;4.968;2022-12-01T03:46:06;50.10;;;33.57;;
9860;SDS011;4969;52.304;4.968;2022-12-01T03:48:37;44.20;;;32.67;;
9860;SDS011;4969;52.304;4.968;2022-12-01T03:51:05;49.67;;;34.23;;
9860;SDS011;4969;52.304;4.968;2022-12-01T03:53:41;49.13;;;33.97;;
9860;SDS011;4969;52.304;4.968;2022-12-01T03:56:14;49.83;;;34.73;;
9860;SDS011;4969;52.304;4.968;2022-12-01T03:58:44;46.20;;;32.27;;
9860;SDS011;4969;52.304;4.968;2022-12-01T04:01:13;54.80;;;36.63;;
9860;SDS011;4969;52.304;4.968;2022-12-01T04:03:41;51.97;;;35.43;;
9860;SDS011;4969;52.304;4.968;2022-12-01T04:06:10;44.23;;;32.27;;
9860;SDS011;4969;52.304;4.968;2022-12-01T04:08:37;52.27;;;35.80;;
9860;SDS011;4969;52.304;4.968;2022-12-01T04:11:04;48.53;;;34.57;;
9860;SDS011;4969;52.304;4.968;2022-12-01T04:13:51;43.17;;;29.60;;
9860;SDS011;4969;52.304;4.968;2022-12-01T04:16:17;44.00;;;31.53;;
9860;SDS011;4969;52.304;4.968;2022-12-01T04:18:45;44.83;;;31.77;;
9860;SDS011;4969;52.304;4.968;2022-12-01T04:21:11;49.17;;;34.23;;
9860;SDS011;4969;52.304;4.968;2022-12-01T04:23:38;44.27;;;31.50;;
9860;SDS011;4969;52.304;4.968;2022-12-01T04:26:22;44.40;;;32.03;;
9860;SDS011;4969;52.304;4.968;2022-12-01T04:28:48;41.70;;;29.83;;
9860;SDS011;4969;52.304;4.968;2022-12-01T04:31:15;43.53;;;31.83;;
9860;SDS011;4969;52.304;4.968;2022-12-01T04:33:42;54.10;;;36.20;;
9860;SDS011;4969;52.304;4.968;2022-12-01T04:36:10;42.10;;;30.30;;
9860;SDS011;4969;52.304;4.968;2022-12-01T04:38:36;42.97;;;32.00;;
9860;SDS011;4969;52.304;4.968;2022-12-01T04:41:06;43.17;;;31.17;;
9860;SDS011;4969;52.304;4.968;2022-12-01T04:43:34;43.67;;;31.90;;
9860;SDS011;4969;52.304;4.968;2022-12-01T04:46:00;46.37;;;31.37;;
9860;SDS011;4969;52.304;4.968;2022-12-01T04:48:27;50.53;;;35.20;;
9860;SDS011;4969;52.304;4.968;2022-12-01T04:50:53;48.60;;;33.17;;
9860;SDS011;4969;52.304;4.968;2022-12-01T04:53:21;46.30;;;31.57;;
9860;SDS011;4969;52.304;4.968;2022-12-01T04:55:48;40.37;;;29.77;;
9860;SDS011;4969;52.304;4.968;2022-12-01T04:58:15;42.80;;;30.43;;
9860;SDS011;4969;52.304;4.968;2022-12-01T05:00:41;43.87;;;31.13;;
9860;SDS011;4969;52.304;4.968;2022-12-01T05:03:08;41.03;;;30.33;;
9860;SDS011;4969;52.304;4.968;2022-12-01T05:05:35;43.43;;;30.33;;
9860;SDS011;4969;52.304;4.968;2022-12-01T05:08:01;50.77;;;33.80;;
9860;SDS011;4969;52.304;4.968;2022-12-01T05:10:29;43.43;;;31.00;;
9860;SDS011;4969;52.304;4.968;2022-12-01T05:12:56;44.67;;;31.87;;
9860;SDS011;4969;52.304;4.968;2022-12-01T05:15:22;54.13;;;36.93;;
9860;SDS011;4969;52.304;4.968;2022-12-01T05:17:49;49.20;;;31.53;;
9860;SDS011;4969;52.304;4.968;2022-12-01T05:20:17;48.73;;;32.03;;
9860;SDS011;4969;52.304;4.968;2022-12-01T05:23:02;46.43;;;31.80;;
9860;SDS011;4969;52.304;4.968;2022-12-01T05:25:30;54.67;;;34.80;;
9860;SDS011;4969;52.304;4.968;2022-12-01T05:27:57;48.77;;;31.80;;
9860;SDS011;4969;52.304;4.968;2022-12-01T05:30:24;54.47;;;35.33;;
9860;SDS011;4969;52.304;4.968;2022-12-01T05:32:51;56.43;;;35.73;;
9860;SDS011;4969;52.304;4.968;2022-12-01T05:35:17;46.17;;;30.30;;
9860;SDS011;4969;52.304;4.968;2022-12-01T05:37:44;49.43;;;32.33;;
9860;SDS011;4969;52.304;4.968;2022-12-01T05:40:11;54.47;;;35.20;;
9860;SDS011;4969;52.304;4.968;2022-12-01T05:42:39;51.07;;;34.53;;
9860;SDS011;4969;52.304;4.968;2022-12-01T05:45:06;52.03;;;34.07;;
9860;SDS011;4969;52.304;4.968;2022-12-01T05:47:33;56.03;;;36.00;;
9860;SDS011;4969;52.304;4.968;2022-12-01T05:49:59;55.57;;;36.33;;
9860;SDS011;4969;52.304;4.968;2022-12-01T05:52:26;57.73;;;37.87;;
9860;SDS011;4969;52.304;4.968;2022-12-01T05:54:53;54.53;;;36.40;;
9860;SDS011;4969;52.304;4.968;2022-12-01T05:57:19;58.27;;;36.33;;
9860;SDS011;4969;52.304;4.968;2022-12-01T05:59:47;57.73;;;35.23;;
9860;SDS011;4969;52.304;4.968;2022-12-01T06:02:14;56.07;;;35.27;;
9860;SDS011;4969;52.304;4.968;2022-12-01T06:04:40;51.77;;;35.07;;
9860;SDS011;4969;52.304;4.968;2022-12-01T06:07:07;55.67;;;35.00;;
9860;SDS011;4969;52.304;4.968;2022-12-01T06:09:33;56.00;;;35.37;;
9860;SDS011;4969;52.304;4.968;2022-12-01T06:12:00;57.00;;;35.70;;
9860;SDS011;4969;52.304;4.968;2022-12-01T06:14:27;56.47;;;35.13;;
9860;SDS011;4969;52.304;4.968;2022-12-01T06:16:55;51.20;;;32.67;;
9860;SDS011;4969;52.304;4.968;2022-12-01T06:19:21;47.67;;;31.40;;
9860;SDS011;4969;52.304;4.968;2022-12-01T06:21:48;53.10;;;33.70;;
9860;SDS011;4969;52.304;4.968;2022-12-01T06:24:14;46.40;;;31.37;;
9860;SDS011;4969;52.304;4.968;2022-12-01T06:26:41;53.77;;;33.63;;
9860;SDS011;4969;52.304;4.968;2022-12-01T06:29:08;50.27;;;32.83;;
9860;SDS011;4969;52.304;4.968;2022-12-01T06:31:34;53.50;;;35.17;;
9860;SDS011;4969;52.304;4.968;2022-12-01T06:34:02;51.50;;;32.80;;
9860;SDS011;4969;52.304;4.968;2022-12-01T06:36:29;47.67;;;31.30;;
9860;SDS011;4969;52.304;4.968;2022-12-01T06:38:56;53.37;;;35.03;;
9860;SDS011;4969;52.304;4.968;2022-12-01T06:41:22;49.77;;;32.23;;
9860;SDS011;4969;52.304;4.968;2022-12-01T06:43:49;51.83;;;34.67;;
9860;SDS011;4969;52.304;4.968;2022-12-01T06:46:15;52.70;;;34.73;;
9860;SDS011;4969;52.304;4.968;2022-12-01T06:48:42;55.30;;;35.10;;
9860;SDS011;4969;52.304;4.968;2022-12-01T06:51:10;54.47;;;34.33;;
9860;SDS011;4969;52.304;4.968;2022-12-01T06:53:37;54.27;;;34.80;;
9860;SDS011;4969;52.304;4.968;2022-12-01T06:56:04;57.10;;;36.17;;
9860;SDS011;4969;52.304;4.968;2022-12-01T06:58:30;55.27;;;35.40;;
9860;SDS011;4969;52.304;4.968;2022-12-01T07:00:58;55.90;;;35.30;;
9860;SDS011;4969;52.304;4.968;2022-12-01T07:03:25;52.90;;;34.57;;
9860;SDS011;4969;52.304;4.968;2022-12-01T07:05:55;53.87;;;35.37;;
9860;SDS011;4969;52.304;4.968;2022-12-01T07:08:24;52.77;;;33.03;;
9860;SDS011;4969;52.304;4.968;2022-12-01T07:10:57;59.27;;;36.83;;
9860;SDS011;4969;52.304;4.968;2022-12-01T07:13:24;59.87;;;38.90;;
9860;SDS011;4969;52.304;4.968;2022-12-01T07:15:51;57.07;;;36.67;;
9860;SDS011;4969;52.304;4.968;2022-12-01T07:18:17;59.27;;;37.13;;
9860;SDS011;4969;52.304;4.968;2022-12-01T07:20:44;56.97;;;37.97;;
9860;SDS011;4969;52.304;4.968;2022-12-01T07:23:11;59.70;;;37.57;;
9860;SDS011;4969;52.304;4.968;2022-12-01T07:25:39;61.27;;;37.80;;
9860;SDS011;4969;52.304;4.968;2022-12-01T07:28:06;57.13;;;36.97;;
9860;SDS011;4969;52.304;4.968;2022-12-01T07:30:32;60.73;;;36.97;;
9860;SDS011;4969;52.304;4.968;2022-12-01T07:32:59;63.90;;;38.23;;
9860;SDS011;4969;52.304;4.968;2022-12-01T07:35:25;56.83;;;38.47;;
9860;SDS011;4969;52.304;4.968;2022-12-01T07:37:53;64.67;;;40.50;;
9860;SDS011;4969;52.304;4.968;2022-12-01T07:40:20;60.17;;;39.37;;
9860;SDS011;4969;52.304;4.968;2022-12-01T07:42:49;52.70;;;36.07;;
9860;SDS011;4969;52.304;4.968;2022-12-01T07:45:15;63.97;;;39.10;;
9860;SDS011;4969;52.304;4.968;2022-12-01T07:47:42;61.87;;;39.23;;
9860;SDS011;4969;52.304;4.968;2022-12-01T07:50:09;57.00;;;37.27;;
9860;SDS011;4969;52.304;4.968;2022-12-01T07:52:36;66.47;;;41.70;;
9860;SDS011;4969;52.304;4.968;2022-12-01T07:55:03;68.23;;;41.30;;
9860;SDS011;4969;52.304;4.968;2022-12-01T07:57:30;62.07;;;40.00;;
9860;SDS011;4969;52.304;4.968;2022-12-01T07:59:58;63.17;;;40.57;;
9860;SDS011;4969;52.304;4.968;2022-12-01T08:02:25;64.17;;;41.90;;
9860;SDS011;4969;52.304;4.968;2022-12-01T08:04:52;62.73;;;40.87;;
9860;SDS011;4969;52.304;4.968;2022-12-01T08:07:18;69.57;;;42.63;;
9860;SDS011;4969;52.304;4.968;2022-12-01T08:09:45;69.60;;;41.70;;
9860;SDS011;4969;52.304;4.968;2022-12-01T08:12:11;69.67;;;42.53;;
9860;SDS011;4969;52.304;4.968;2022-12-01T08:14:38;70.63;;;42.50;;
9860;SDS011;4969;52.304;4.968;2022-12-01T08:17:06;66.60;;;41.00;;
9860;SDS011;4969;52.304;4.968;2022-12-01T08:19:32;68.83;;;42.63;;
9860;SDS011;4969;52.304;4.968;2022-12-01T08:21:59;73.43;;;43.90;;
9860;SDS011;4969;52.304;4.968;2022-12-01T08:24:26;62.00;;;39.17;;
9860;SDS011;4969;52.304;4.968;2022-12-01T08:26:52;69.20;;;40.53;;
9860;SDS011;4969;52.304;4.968;2022-12-01T08:29:19;73.13;;;41.77;;
9860;SDS011;4969;52.304;4.968;2022-12-01T08:31:46;70.30;;;42.47;;
9860;SDS011;4969;52.304;4.968;2022-12-01T08:34:14;70.07;;;41.10;;
9860;SDS011;4969;52.304;4.968;2022-12-01T08:36:40;69.90;;;41.37;;
9860;SDS011;4969;52.304;4.968;2022-12-01T08:39:07;66.33;;;42.27;;
9860;SDS011;4969;52.304;4.968;2022-12-01T08:41:34;69.70;;;43.23;;
9860;SDS011;4969;52.304;4.968;2022-12-01T08:44:00;70.47;;;43.50;;
9860;SDS011;4969;52.304;4.968;2022-12-01T08:46:28;64.97;;;40.40;;
9860;SDS011;4969;52.304;4.968;2022-12-01T08:48:57;66.10;;;38.93;;
9860;SDS011;4969;52.304;4.968;2022-12-01T08:51:25;66.87;;;41.53;;
9860;SDS011;4969;52.304;4.968;2022-12-01T08:53:53;63.90;;;39.60;;
9860;SDS011;4969;52.304;4.968;2022-12-01T08:56:22;60.27;;;38.63;;
9860;SDS011;4969;52.304;4.968;2022-12-01T08:58:50;66.87;;;42.67;;
9860;SDS011;4969;52.304;4.968;2022-12-01T09:01:19;61.73;;;38.87;;
9860;SDS011;4969;52.304;4.968;2022-12-01T09:03:46;63.83;;;40.17;;
9860;SDS011;4969;52.304;4.968;2022-12-01T09:06:13;66.83;;;40.83;;
9860;SDS011;4969;52.304;4.968;2022-12-01T09:08:42;67.53;;;40.70;;
9860;SDS011;4969;52.304;4.968;2022-12-01T09:11:10;59.03;;;38.40;;
9860;SDS011;4969;52.304;4.968;2022-12-01T09:13:38;63.70;;;40.03;;
9860;SDS011;4969;52.304;4.968;2022-12-01T09:16:06;64.30;;;40.57;;
9860;SDS011;4969;52.304;4.968;2022-12-01T09:18:35;65.57;;;41.37;;
9860;SDS011;4969;52.304;4.968;2022-12-01T09:21:08;64.43;;;39.40;;
9860;SDS011;4969;52.304;4.968;2022-12-01T09:23:35;67.37;;;41.40;;
9860;SDS011;4969;52.304;4.968;2022-12-01T09:26:05;67.27;;;42.60;;
9860;SDS011;4969;52.304;4.968;2022-12-01T09:28:32;74.33;;;44.10;;
9860;SDS011;4969;52.304;4.968;2022-12-01T09:31:02;71.97;;;42.67;;
9860;SDS011;4969;52.304;4.968;2022-12-01T09:33:29;68.13;;;44.37;;
9860;SDS011;4969;52.304;4.968;2022-12-01T09:35:56;70.13;;;44.43;;
9860;SDS011;4969;52.304;4.968;2022-12-01T09:38:23;69.90;;;43.03;;
9860;SDS011;4969;52.304;4.968;2022-12-01T09:40:49;68.50;;;44.07;;
9860;SDS011;4969;52.304;4.968;2022-12-01T09:43:19;72.10;;;44.97;;
9860;SDS011;4969;52.304;4.968;2022-12-01T09:45:49;64.77;;;42.53;;
9860;SDS011;4969;52.304;4.968;2022-12-01T09:48:23;59.27;;;40.27;;
9860;SDS011;4969;52.304;4.968;2022-12-01T09:50:52;58.97;;;39.93;;
9860;SDS011;4969;52.304;4.968;2022-12-01T09:53:20;59.37;;;39.63;;
9860;SDS011;4969;52.304;4.968;2022-12-01T09:55:49;67.50;;;43.00;;
9860;SDS011;4969;52.304;4.968;2022-12-01T09:58:16;61.73;;;41.10;;
9860;SDS011;4969;52.304;4.968;2022-12-01T10:00:46;69.00;;;42.57;;
9860;SDS011;4969;52.304;4.968;2022-12-01T10:03:16;72.83;;;43.93;;
9860;SDS011;4969;52.304;4.968;2022-12-01T10:05:51;73.73;;;44.53;;
9860;SDS011;4969;52.304;4.968;2022-12-01T10:08:21;71.37;;;43.73;;
9860;SDS011;4969;52.304;4.968;2022-12-01T10:10:50;73.87;;;44.77;;
9860;SDS011;4969;52.304;4.968;2022-12-01T10:13:21;69.53;;;41.93;;
9860;SDS011;4969;52.304;4.968;2022-12-01T10:15:50;66.73;;;42.37;;
9860;SDS011;4969;52.304;4.968;2022-12-01T10:18:27;65.57;;;41.63;;
9860;SDS011;4969;52.304;4.968;2022-12-01T10:21:04;62.53;;;40.60;;
9860;SDS011;4969;52.304;4.968;2022-12-01T10:23:40;67.13;;;41.47;;
9860;SDS011;4969;52.304;4.968;2022-12-01T10:26:13;65.53;;;40.83;;
9860;SDS011;4969;52.304;4.968;2022-12-01T10:28:59;67.30;;;42.70;;
9860;SDS011;4969;52.304;4.968;2022-12-01T10:31:36;68.83;;;43.20;;
9860;SDS011;4969;52.304;4.968;2022-12-01T10:34:12;58.53;;;40.13;;
9860;SDS011;4969;52.304;4.968;2022-12-01T10:36:41;59.20;;;40.17;;
9860;SDS011;4969;52.304;4.968;2022-12-01T10:39:09;67.80;;;44.00;;
9860;SDS011;4969;52.304;4.968;2022-12-01T10:41:42;63.23;;;40.73;;
9860;SDS011;4969;52.304;4.968;2022-12-01T10:44:10;62.03;;;38.93;;
9860;SDS011;4969;52.304;4.968;2022-12-01T10:46:39;64.10;;;41.07;;
9860;SDS011;4969;52.304;4.968;2022-12-01T10:49:10;67.80;;;42.30;;
9860;SDS011;4969;52.304;4.968;2022-12-01T10:51:45;62.17;;;39.27;;
9860;SDS011;4969;52.304;4.968;2022-12-01T10:54:14;61.23;;;39.60;;
9860;SDS011;4969;52.304;4.968;2022-12-01T10:56:41;58.97;;;38.20;;
9860;SDS011;4969;52.304;4.968;2022-12-01T10:59:25;49.60;;;35.30;;
9860;SDS011;4969;52.304;4.968;2022-12-01T11:01:56;57.43;;;38.10;;
9860;SDS011;4969;52.304;4.968;2022-12-01T11:04:27;49.80;;;35.87;;
9860;SDS011;4969;52.304;4.968;2022-12-01T11:06:59;51.40;;;34.30;;
9860;SDS011;4969;52.304;4.968;2022-12-01T11:09:26;45.37;;;33.33;;
9860;SDS011;4969;52.304;4.968;2022-12-01T11:11:55;44.73;;;33.63;;
9860;SDS011;4969;52.304;4.968;2022-12-01T11:14:24;46.07;;;33.13;;
9860;SDS011;4969;52.304;4.968;2022-12-01T11:16:59;46.10;;;34.00;;
9860;SDS011;4969;52.304;4.968;2022-12-01T11:19:40;45.40;;;32.80;;
9860;SDS011;4969;52.304;4.968;2022-12-01T11:22:16;48.30;;;34.27;;
9860;SDS011;4969;52.304;4.968;2022-12-01T11:24:55;48.23;;;34.07;;
9860;SDS011;4969;52.304;4.968;2022-12-01T11:27:27;49.47;;;36.17;;
9860;SDS011;4969;52.304;4.968;2022-12-01T11:29:58;53.53;;;38.70;;
9860;SDS011;4969;52.304;4.968;2022-12-01T11:32:29;51.37;;;35.83;;
9860;SDS011;4969;52.304;4.968;2022-12-01T11:34:58;51.50;;;34.60;;
9860;SDS011;4969;52.304;4.968;2022-12-01T11:37:28;51.43;;;36.17;;
9860;SDS011;4969;52.304;4.968;2022-12-01T11:40:06;53.50;;;36.17;;
9860;SDS011;4969;52.304;4.968;2022-12-01T11:42:38;49.83;;;34.30;;
9860;SDS011;4969;52.304;4.968;2022-12-01T11:45:17;51.60;;;35.53;;
9860;SDS011;4969;52.304;4.968;2022-12-01T11:47:56;51.03;;;35.40;;
9860;SDS011;4969;52.304;4.968;2022-12-01T11:50:25;48.20;;;35.07;;
9860;SDS011;4969;52.304;4.968;2022-12-01T11:52:54;47.73;;;32.50;;
9860;SDS011;4969;52.304;4.968;2022-12-01T11:55:21;49.13;;;33.60;;
9860;SDS011;4969;52.304;4.968;2022-12-01T11:57:51;46.90;;;32.37;;
9860;SDS011;4969;52.304;4.968;2022-12-01T12:00:22;48.60;;;31.83;;
9860;SDS011;4969;52.304;4.968;2022-12-01T12:02:58;50.37;;;32.47;;
9860;SDS011;4969;52.304;4.968;2022-12-01T12:05:38;43.60;;;32.37;;
9860;SDS011;4969;52.304;4.968;2022-12-01T12:08:15;44.90;;;31.93;;
9860;SDS011;4969;52.304;4.968;2022-12-01T12:10:54;45.33;;;30.23;;
9860;SDS011;4969;52.304;4.968;2022-12-01T12:16:20;46.33;;;31.83;;
9860;SDS011;4969;52.304;4.968;2022-12-01T12:18:59;44.63;;;29.83;;
9860;SDS011;4969;52.304;4.968;2022-12-01T12:21:37;42.50;;;30.87;;
9860;SDS011;4969;52.304;4.968;2022-12-01T12:24:13;42.33;;;30.33;;
9860;SDS011;4969;52.304;4.968;2022-12-01T12:26:51;38.10;;;28.57;;
9860;SDS011;4969;52.304;4.968;2022-12-01T12:29:29;38.40;;;28.30;;
9860;SDS011;4969;52.304;4.968;2022-12-01T12:32:14;40.93;;;28.27;;
9860;SDS011;4969;52.304;4.968;2022-12-01T12:34:54;42.30;;;28.77;;
9860;SDS011;4969;52.304;4.968;2022-12-01T12:37:29;39.40;;;27.70;;
9860;SDS011;4969;52.304;4.968;2022-12-01T12:40:07;38.77;;;27.57;;
9860;SDS011;4969;52.304;4.968;2022-12-01T12:42:47;35.17;;;25.23;;
9860;SDS011;4969;52.304;4.968;2022-12-01T12:45:24;36.00;;;26.73;;
9860;SDS011;4969;52.304;4.968;2022-12-01T12:48:04;32.43;;;25.27;;
9860;SDS011;4969;52.304;4.968;2022-12-01T12:50:42;35.93;;;24.87;;
9860;SDS011;4969;52.304;4.968;2022-12-01T12:53:15;31.37;;;22.20;;
9860;SDS011;4969;52.304;4.968;2022-12-01T12:55:45;32.70;;;24.80;;
9860;SDS011;4969;52.304;4.968;2022-12-01T12:58:16;31.30;;;23.13;;
9860;SDS011;4969;52.304;4.968;2022-12-01T13:00:47;31.67;;;23.67;;
9860;SDS011;4969;52.304;4.968;2022-12-01T13:03:18;29.83;;;23.00;;
9860;SDS011;4969;52.304;4.968;2022-12-01T13:05:51;28.00;;;22.60;;
9860;SDS011;4969;52.304;4.968;2022-12-01T13:08:24;27.93;;;21.67;;
9860;SDS011;4969;52.304;4.968;2022-12-01T13:10:56;26.23;;;20.57;;
9860;SDS011;4969;52.304;4.968;2022-12-01T13:13:28;26.37;;;20.47;;
9860;SDS011;4969;52.304;4.968;2022-12-01T13:15:58;24.40;;;21.13;;
9860;SDS011;4969;52.304;4.968;2022-12-01T13:18:31;24.93;;;19.87;;
9860;SDS011;4969;52.304;4.968;2022-12-01T13:21:02;24.73;;;18.20;;
9860;SDS011;4969;52.304;4.968;2022-12-01T13:23:29;23.67;;;19.00;;
9860;SDS011;4969;52.304;4.968;2022-12-01T13:25:58;25.60;;;19.43;;
9860;SDS011;4969;52.304;4.968;2022-12-01T13:28:30;25.93;;;19.33;;
9860;SDS011;4969;52.304;4.968;2022-12-01T13:31:03;24.63;;;20.03;;
9860;SDS011;4969;52.304;4.968;2022-12-01T13:33:33;26.90;;;19.63;;
9860;SDS011;4969;52.304;4.968;2022-12-01T13:36:01;24.70;;;21.03;;
9860;SDS011;4969;52.304;4.968;2022-12-01T13:38:34;22.20;;;19.20;;
9860;SDS011;4969;52.304;4.968;2022-12-01T13:41:08;24.50;;;18.67;;
9860;SDS011;4969;52.304;4.968;2022-12-01T13:43:43;24.43;;;19.93;;
9860;SDS011;4969;52.304;4.968;2022-12-01T13:46:19;24.37;;;19.40;;
9860;SDS011;4969;52.304;4.968;2022-12-01T13:48:52;24.93;;;19.37;;
9860;SDS011;4969;52.304;4.968;2022-12-01T13:51:20;27.17;;;19.87;;
9860;SDS011;4969;52.304;4.968;2022-12-01T13:54:04;26.10;;;19.57;;
9860;SDS011;4969;52.304;4.968;2022-12-01T13:56:57;26.57;;;20.10;;
9860;SDS011;4969;52.304;4.968;2022-12-01T13:59:39;21.77;;;19.30;;
9860;SDS011;4969;52.304;4.968;2022-12-01T14:02:28;25.10;;;20.53;;
9860;SDS011;4969;52.304;4.968;2022-12-01T14:05:10;24.17;;;18.43;;
9860;SDS011;4969;52.304;4.968;2022-12-01T14:08:12;23.23;;;18.93;;
9860;SDS011;4969;52.304;4.968;2022-12-01T14:10:40;25.50;;;19.73;;
9860;SDS011;4969;52.304;4.968;2022-12-01T14:13:19;23.73;;;19.50;;
9860;SDS011;4969;52.304;4.968;2022-12-01T14:15:51;23.93;;;19.40;;
9860;SDS011;4969;52.304;4.968;2022-12-01T14:18:28;26.23;;;18.77;;
9860;SDS011;4969;52.304;4.968;2022-12-01T14:21:02;22.23;;;17.83;;
9860;SDS011;4969;52.304;4.968;2022-12-01T14:23:31;22.83;;;18.30;;
9860;SDS011;4969;52.304;4.968;2022-12-01T14:26:11;20.00;;;17.20;;
9860;SDS011;4969;52.304;4.968;2022-12-01T14:34:50;22.20;;;16.57;;
9860;SDS011;4969;52.304;4.968;2022-12-01T14:37:22;20.37;;;16.10;;
9860;SDS011;4969;52.304;4.968;2022-12-01T14:39:55;23.70;;;16.80;;
9860;SDS011;4969;52.304;4.968;2022-12-01T14:42:25;19.93;;;16.80;;
9860;SDS011;4969;52.304;4.968;2022-12-01T14:45:14;22.03;;;17.67;;
9860;SDS011;4969;52.304;4.968;2022-12-01T14:47:46;21.00;;;16.17;;
9860;SDS011;4969;52.304;4.968;2022-12-01T14:50:19;21.30;;;16.67;;
9860;SDS011;4969;52.304;4.968;2022-12-01T14:52:51;21.27;;;17.03;;
9860;SDS011;4969;52.304;4.968;2022-12-01T14:55:21;19.33;;;15.97;;
9860;SDS011;4969;52.304;4.968;2022-12-01T14:57:52;20.33;;;17.17;;
9860;SDS011;4969;52.304;4.968;2022-12-01T15:00:25;20.80;;;16.70;;
9860;SDS011;4969;52.304;4.968;2022-12-01T15:02:53;19.20;;;14.90;;
9860;SDS011;4969;52.304;4.968;2022-12-01T15:05:23;18.70;;;14.80;;
9860;SDS011;4969;52.304;4.968;2022-12-01T15:07:54;17.73;;;15.30;;
9860;SDS011;4969;52.304;4.968;2022-12-01T15:10:23;19.07;;;16.37;;
9860;SDS011;4969;52.304;4.968;2022-12-01T15:12:51;19.37;;;15.60;;
9860;SDS011;4969;52.304;4.968;2022-12-01T15:15:19;20.13;;;15.57;;
9860;SDS011;4969;52.304;4.968;2022-12-01T15:17:47;19.40;;;15.23;;